Flugplatz Porta Westfalica

Für EDVY sind keine METAR/TAF Berichte vorhanden.
Es werden die Flugwettermeldungen vom Flugplatz Buckeburg Airport in 16 km Entfernung angezeigt.

Bericht für ETHB

vom 17.09. um 13:20 UTC

Wind 19 kt aus 300°

Sichtweite 10 km oder mehr

Code: VCSH

aufgebrochene Bewölkung in 3500 ft

aufgebrochene Bewölkung in 7000 ft

Temperatur 17.0°C

Taupunkt 8.0°C

Luftfeuchtigkeit 55%

Luftdruck 1017 hPa

ETHB 171320Z 30019KT 9999 VCSH BKN035 BKN070 17/08 Q1017 BLU BLU

Prognose für ETHB

vom 17.09. um 00:00 UTC

Zwischen 00:00 UTC und 00:00 UTC

Wind 15 kt aus 270° in Böen 25 kt

Sichtweite 10 km oder mehr

keine signifikanten Wettererscheinungen

aufgelockert bewölkt in 2500 ft

aufgebrochene Bewölkung in 4000 ft


Zwischen 00:00 UTC und 00:00 UTC mit einer Wahrscheinlichkeit von 30%

Wind 20 kt aus 300° in Böen 30 kt

Sichtweite 6000 m

Regenschauer

aufgelockert bewölkt in 1500 ft

aufgebrochene Bewölkung in 2000 ft

TAF ETHB 171321Z 1714/1723 27015G25KT 9999 NSW SCT025 BKN040 PROB30 1714/1718 30020G30KT 6000 SHRA SCT015 BKN020TCU
Impressum